Crystal Symphony — C6MY5 — position and weather

sailwx.info

Track history (hours):
 
Tides and Currents Weather Stations Pressure Air Temp Water Temp Dewpoint Dewpoint Depression Visibility Wind Speed Wind Dir Waves Ship Positions

Crystal Symphony

Operator: Crystal Cruises

Last reported at 2015-Sep-02 22:22 UTC. Time now 2015-Sep-05 16:23 UTC.
Position N 57°41' W 001°35'.

; draft 8 m.

Type: Passenger vessel. MMSI: 309168000.

Date/timePositionNaut miles runAvg speedWind from/ knotsBaromVisibWave heightAir tempDewpointWater temp
2015-Sep-02 22:22N 57°41' W 001°35'8 9.4
2015-Sep-02 21:33N 57°33' W 001°34'10 9.6
2015-Sep-02 20:33N 57°24' W 001°35'5413.1
2015-Sep-02 16:27N 56°33' W 002°11'1415.3
2015-Sep-02 15:33N 56°21' W 002°21'1515.0
2015-Sep-02 14:33N 56°08' W 002°35'1716.8
2015-Sep-02 13:33N 56°04' W 003°04'1211.7
2015-Sep-02 12:33N 56°01' W 003°25'1 0.1
2015-Sep-02 02:25N 56°01' W 003°26'0 0.0
2015-Sep-02 01:15N 56°01' W 003°26'0 0.0
2015-Sep-02 00:21N 56°01' W 003°26'0 0.0
2015-Sep-01 23:33N 56°01' W 003°26'0 0.0
2015-Sep-01 12:05N 56°01' W 003°26'2 3.0
2015-Sep-01 11:34N 56°00' W 003°24'1212.0
2015-Sep-01 10:33N 56°04' W 003°04'1817.7
2015-Sep-01 09:34N 56°07' W 002°33'2120.8
2015-Sep-01 08:34N 56°00' W 001°58'8120.1
2015-Sep-01 04:31N 55°05' W 000°12'1919.6
2015-Sep-01 03:33N 54°52' E 000°11'2020.3
2015-Sep-01 02:33N 54°38' E 000°36'16419.9
2015-Aug-31 18:18N 52°45' E 003°57'1520.9
2015-Aug-31 17:33N 52°32' E 004°11'1515.1
2015-Aug-31 16:33N 52°28' E 004°35'3 3.3
2015-Aug-31 15:33N 52°27' E 004°40'8 7.7
2015-Aug-31 14:33N 52°25' E 004°52'2 2.4
2015-Aug-31 13:31N 52°23' E 004°55'0 0.0
2015-Aug-31 12:31N 52°23' E 004°55'0 0.0
2015-Aug-31 11:33N 52°23' E 004°55'0 0.0
2015-Aug-31 10:33N 52°23' E 004°55'0 0.0
2015-Aug-31 09:32N 52°23' E 004°55'0 0.0
2015-Aug-31 08:32N 52°23' E 004°55'0 0.0
2015-Aug-31 07:32N 52°23' E 004°55'0 0.0
2015-Aug-31 06:31N 52°23' E 004°55'0 0.0
2015-Aug-31 05:31N 52°23' E 004°55'0 0.0
2015-Aug-31 04:33N 52°23' E 004°55'0 0.0
2015-Aug-31 03:33N 52°23' E 004°55'0 0.0
2015-Aug-31 02:32N 52°23' E 004°55'0 0.0
2015-Aug-31 01:32N 52°23' E 004°55'0 0.0
2015-Aug-31 00:32N 52°23' E 004°55'0 0.0
2015-Aug-30 23:31N 52°23' E 004°55'0 0.0
2015-Aug-30 22:31N 52°23' E 004°55'0 0.0
2015-Aug-30 21:33N 52°23' E 004°55'0 0.0
2015-Aug-30 20:33N 52°23' E 004°55'0 0.0
2015-Aug-30 19:32N 52°23' E 004°55'0 0.0
2015-Aug-30 18:32N 52°23' E 004°55'0 0.0
2015-Aug-30 17:29N 52°23' E 004°55'0 0.0
2015-Aug-30 16:31N 52°23' E 004°55'0 0.0
2015-Aug-30 15:31N 52°23' E 004°55'0 0.0
2015-Aug-30 14:33N 52°23' E 004°55'0 0.0
2015-Aug-30 13:30N 52°23' E 004°55'0 0.0
2015-Aug-30 12:32N 52°23' E 004°55'0 0.0
2015-Aug-30 11:32N 52°23' E 004°55'0 0.0
2015-Aug-30 10:33N 52°23' E 004°55'0 0.0
2015-Aug-30 09:31N 52°23' E 004°55'0 0.0
2015-Aug-30 08:28N 52°23' E 004°55'0 0.0
2015-Aug-30 07:33N 52°23' E 004°55'0 0.0
2015-Aug-30 06:33N 52°23' E 004°55'0 0.0
2015-Aug-30 05:32N 52°23' E 004°55'0 0.0
2015-Aug-30 04:32N 52°23' E 004°55'0 0.0
2015-Aug-30 03:32N 52°23' E 004°55'0 0.0
2015-Aug-30 02:31N 52°23' E 004°55'0 0.0
2015-Aug-30 01:31N 52°23' E 004°55'0 0.0
2015-Aug-30 00:33N 52°23' E 004°55'0 0.0
2015-Aug-29 23:33N 52°23' E 004°55'0 0.0
2015-Aug-29 22:29N 52°23' E 004°55'0 0.0
2015-Aug-29 21:32N 52°23' E 004°55'0 0.0
2015-Aug-29 20:34N 52°23' E 004°55'3 3.4
2015-Aug-29 19:34N 52°25' E 004°51'7 7.4
2015-Aug-29 18:33N 52°28' E 004°39'3 3.2
2015-Aug-29 17:34N 52°28' E 004°34'1313.2
2015-Aug-29 16:33N 52°29' E 004°12'1919.1
2015-Aug-29 15:33N 52°46' E 003°60'1817.8
2015-Aug-29 14:32N 53°03' E 004°12'1919.6
2015-Aug-29 13:33N 53°19' E 004°29'1919.3
2015-Aug-29 12:34N 53°33' E 004°52'2121.4
2015-Aug-29 11:33N 53°39' E 005°26'2121.4
2015-Aug-29 10:34N 53°46' E 006°00'2120.6
2015-Aug-29 09:33N 53°52' E 006°34'2020.0
2015-Aug-29 08:33N 53°57' E 007°07'2019.7
2015-Aug-29 07:33N 54°02' E 007°39'1313.2
2015-Aug-29 06:33N 54°10' E 007°57'2 1.5
2015-Aug-29 05:33N 54°11' E 007°57'6 6.3
2015-Aug-29 04:33N 54°14' E 007°47'1010.1
2015-Aug-29 03:33N 54°20' E 007°33'9 9.4
2015-Aug-29 02:33N 54°26' E 007°21'8 8.1
2015-Aug-29 01:33N 54°21' E 007°10'1111.5
2015-Aug-29 00:33N 54°15' E 007°27'1111.4
2015-Aug-28 23:33N 54°09' E 007°43'1110.8
2015-Aug-28 22:33N 54°04' E 007°59'10 9.9
2015-Aug-28 21:33N 54°00' E 008°15'1414.5
2015-Aug-28 20:33N 53°57' E 008°39'1413.6
2015-Aug-28 19:33N 53°51' E 009°00'1313.5
2015-Aug-28 18:34N 53°48' E 009°22'1514.7
2015-Aug-28 17:33N 53°36' E 009°36'1111.2
2015-Aug-28 16:33N 53°33' E 009°54'4 3.5
2015-Aug-28 15:32N 53°32' E 009°60'0 0.0
2015-Aug-28 14:31N 53°32' E 009°60'0 0.0
2015-Aug-28 13:28N 53°32' E 009°60'0 0.0
2015-Aug-28 12:31N 53°32' E 009°60'0 0.0
2015-Aug-28 11:30N 53°32' E 009°60'0 0.0
2015-Aug-28 10:33N 53°32' E 009°60'0 0.0
2015-Aug-28 09:32N 53°32' E 009°60'0 0.0
2015-Aug-28 08:32N 53°32' E 009°60'0 0.0
2015-Aug-28 07:32N 53°32' E 009°60'0 0.0
2015-Aug-28 06:31N 53°32' E 009°60'0 0.0
2015-Aug-28 05:31N 53°32' E 009°60'0 0.0
2015-Aug-28 04:33N 53°32' E 009°60'0 0.0
2015-Aug-28 03:33N 53°32' E 009°60'0 0.0
2015-Aug-28 02:32N 53°32' E 009°60'0 0.0
2015-Aug-28 01:32N 53°32' E 009°60'0 0.0
2015-Aug-28 00:31N 53°32' E 009°60'0 0.0
2015-Aug-27 23:31N 53°32' E 009°60'0 0.0
2015-Aug-27 22:31N 53°32' E 009°60'0 0.0
2015-Aug-27 21:33N 53°32' E 009°60'0 0.0
2015-Aug-27 20:33N 53°32' E 009°60'0 0.0
2015-Aug-27 19:32N 53°32' E 009°60'0 0.0
2015-Aug-27 18:32N 53°32' E 009°60'0 0.0
2015-Aug-27 17:33N 53°32' E 009°60'3 3.2
2015-Aug-27 16:33N 53°32' E 009°54'1010.3
2015-Aug-27 15:34N 53°35' E 009°37'1211.7
2015-Aug-27 14:33N 53°44' E 009°26'1313.4
2015-Aug-27 13:34N 53°53' E 009°08'1413.6
2015-Aug-27 12:34N 53°51' E 008°45'1313.5
2015-Aug-27 11:33N 53°59' E 008°26'1212.3
2015-Aug-27 10:33N 53°59' E 008°05'1818.6
2015-Aug-27 09:33N 54°09' E 007°39'2020.2
2015-Aug-27 08:33N 54°18' E 007°08'24221.3
2015-Aug-26 21:12N 54°54' E 000°15'1520.8
2015-Aug-26 20:29N 54°56' W 000°10'1920.7
2015-Aug-26 19:33N 54°58' W 000°44'25 2.5
2015-Aug-26 09:18N 54°59' W 001°28'5 6.4
2015-Aug-26 08:32N 55°02' W 001°20'4117.5
2015-Aug-26 06:11N 55°42' W 001°33'1419.1
2015-Aug-26 05:26N 55°53' W 001°49'1718.8
2015-Aug-26 04:33N 56°04' W 002°12'2019.6
2015-Aug-26 03:33N 56°06' W 002°46'1615.9
2015-Aug-26 02:33N 56°02' W 003°14'7 6.2
2015-Aug-26 01:26N 56°01' W 003°26'0 0.0
2015-Aug-25 20:06N 56°01' W 003°26'0 0.0
2015-Aug-25 19:30N 56°01' W 003°26'0 0.0
2015-Aug-25 17:32N 56°01' W 003°26'0 0.0
2015-Aug-25 16:25N 56°01' W 003°26'0 0.0
2015-Aug-25 14:25N 56°01' W 003°26'0 0.0
2015-Aug-25 13:18N 56°01' W 003°26'0 0.1
2015-Aug-25 12:26N 56°01' W 003°26'0 0.0
2015-Aug-25 11:17N 56°01' W 003°26'0 0.0
2015-Aug-25 10:31N 56°01' W 003°26'0 0.0
2015-Aug-25 09:22N 56°01' W 003°26'0 0.0
2015-Aug-25 08:31N 56°01' W 003°26'0 0.0
2015-Aug-25 07:19N 56°01' W 003°26'0 0.0
2015-Aug-25 06:12N 56°01' W 003°26'0 0.2
2015-Aug-25 05:33N 56°01' W 003°26'9 9.0
2015-Aug-25 04:33N 56°03' W 003°10'1212.5
2015-Aug-25 03:33N 56°06' W 002°49'1414.2
2015-Aug-25 02:33N 56°09' W 002°24'1313.2
2015-Aug-25 01:33N 56°11' W 002°00'2713.6
2015-Aug-24 23:33N 56°17' W 001°12'38517.4
2015-Aug-24 01:25N 57°49' E 010°15'1518.0
2015-Aug-24 00:33N 57°49' E 010°44'1818.2
2015-Aug-23 23:33N 57°37' E 011°09'1818.2
2015-Aug-23 22:33N 57°23' E 011°31'  
Track history (hours):
 
Tides and Currents Weather Stations Pressure Air Temp Water Temp Dewpoint Dewpoint Depression Visibility Wind Speed Wind Dir Waves Ship Positions

Crystal Symphony

Operator: Crystal Cruises

Last reported at 2015-Sep-02 22:22 UTC. Time now 2015-Sep-05 16:23 UTC.
Position N 57°41' W 001°35'.

; draft 8 m.

Type: Passenger vessel. MMSI: 309168000.

Date/timePositionNaut miles runAvg speedWind from/ knotsBaromVisibWave heightAir tempDewpointWater temp
2015-Sep-02 22:22N 57°41' W 001°35'8 9.4
2015-Sep-02 21:33N 57°33' W 001°34'10 9.6
2015-Sep-02 20:33N 57°24' W 001°35'5413.1
2015-Sep-02 16:27N 56°33' W 002°11'1415.3
2015-Sep-02 15:33N 56°21' W 002°21'1515.0
2015-Sep-02 14:33N 56°08' W 002°35'1716.8
2015-Sep-02 13:33N 56°04' W 003°04'1211.7
2015-Sep-02 12:33N 56°01' W 003°25'1 0.1
2015-Sep-02 02:25N 56°01' W 003°26'0 0.0
2015-Sep-02 01:15N 56°01' W 003°26'0 0.0
2015-Sep-02 00:21N 56°01' W 003°26'0 0.0
2015-Sep-01 23:33N 56°01' W 003°26'0 0.0
2015-Sep-01 12:05N 56°01' W 003°26'2 3.0
2015-Sep-01 11:34N 56°00' W 003°24'1212.0
2015-Sep-01 10:33N 56°04' W 003°04'1817.7
2015-Sep-01 09:34N 56°07' W 002°33'2120.8
2015-Sep-01 08:34N 56°00' W 001°58'8120.1
2015-Sep-01 04:31N 55°05' W 000°12'1919.6
2015-Sep-01 03:33N 54°52' E 000°11'2020.3
2015-Sep-01 02:33N 54°38' E 000°36'16419.9
2015-Aug-31 18:18N 52°45' E 003°57'1520.9
2015-Aug-31 17:33N 52°32' E 004°11'1515.1
2015-Aug-31 16:33N 52°28' E 004°35'3 3.3
2015-Aug-31 15:33N 52°27' E 004°40'8 7.7
2015-Aug-31 14:33N 52°25' E 004°52'2 2.4
2015-Aug-31 13:31N 52°23' E 004°55'0 0.0
2015-Aug-31 12:31N 52°23' E 004°55'0 0.0
2015-Aug-31 11:33N 52°23' E 004°55'0 0.0
2015-Aug-31 10:33N 52°23' E 004°55'0 0.0
2015-Aug-31 09:32N 52°23' E 004°55'0 0.0
2015-Aug-31 08:32N 52°23' E 004°55'0 0.0
2015-Aug-31 07:32N 52°23' E 004°55'0 0.0
2015-Aug-31 06:31N 52°23' E 004°55'0 0.0
2015-Aug-31 05:31N 52°23' E 004°55'0 0.0
2015-Aug-31 04:33N 52°23' E 004°55'0 0.0
2015-Aug-31 03:33N 52°23' E 004°55'0 0.0
2015-Aug-31 02:32N 52°23' E 004°55'0 0.0
2015-Aug-31 01:32N 52°23' E 004°55'0 0.0
2015-Aug-31 00:32N 52°23' E 004°55'0 0.0
2015-Aug-30 23:31N 52°23' E 004°55'0 0.0
2015-Aug-30 22:31N 52°23' E 004°55'0 0.0
2015-Aug-30 21:33N 52°23' E 004°55'0 0.0
2015-Aug-30 20:33N 52°23' E 004°55'0 0.0
2015-Aug-30 19:32N 52°23' E 004°55'0 0.0
2015-Aug-30 18:32N 52°23' E 004°55'0 0.0
2015-Aug-30 17:29N 52°23' E 004°55'0 0.0
2015-Aug-30 16:31N 52°23' E 004°55'0 0.0
2015-Aug-30 15:31N 52°23' E 004°55'0 0.0
2015-Aug-30 14:33N 52°23' E 004°55'0 0.0
2015-Aug-30 13:30N 52°23' E 004°55'0 0.0
2015-Aug-30 12:32N 52°23' E 004°55'0 0.0
2015-Aug-30 11:32N 52°23' E 004°55'0 0.0
2015-Aug-30 10:33N 52°23' E 004°55'0 0.0
2015-Aug-30 09:31N 52°23' E 004°55'0 0.0
2015-Aug-30 08:28N 52°23' E 004°55'0 0.0
2015-Aug-30 07:33N 52°23' E 004°55'0 0.0
2015-Aug-30 06:33N 52°23' E 004°55'0 0.0
2015-Aug-30 05:32N 52°23' E 004°55'0 0.0
2015-Aug-30 04:32N 52°23' E 004°55'0 0.0
2015-Aug-30 03:32N 52°23' E 004°55'0 0.0
2015-Aug-30 02:31N 52°23' E 004°55'0 0.0
2015-Aug-30 01:31N 52°23' E 004°55'0 0.0
2015-Aug-30 00:33N 52°23' E 004°55'0 0.0
2015-Aug-29 23:33N 52°23' E 004°55'0 0.0
2015-Aug-29 22:29N 52°23' E 004°55'0 0.0
2015-Aug-29 21:32N 52°23' E 004°55'0 0.0
2015-Aug-29 20:34N 52°23' E 004°55'3 3.4
2015-Aug-29 19:34N 52°25' E 004°51'7 7.4
2015-Aug-29 18:33N 52°28' E 004°39'3 3.2
2015-Aug-29 17:34N 52°28' E 004°34'1313.2
2015-Aug-29 16:33N 52°29' E 004°12'1919.1
2015-Aug-29 15:33N 52°46' E 003°60'1817.8
2015-Aug-29 14:32N 53°03' E 004°12'1919.6
2015-Aug-29 13:33N 53°19' E 004°29'1919.3
2015-Aug-29 12:34N 53°33' E 004°52'2121.4
2015-Aug-29 11:33N 53°39' E 005°26'2121.4
2015-Aug-29 10:34N 53°46' E 006°00'2120.6
2015-Aug-29 09:33N 53°52' E 006°34'2020.0
2015-Aug-29 08:33N 53°57' E 007°07'2019.7
2015-Aug-29 07:33N 54°02' E 007°39'1313.2
2015-Aug-29 06:33N 54°10' E 007°57'2 1.5
2015-Aug-29 05:33N 54°11' E 007°57'6 6.3
2015-Aug-29 04:33N 54°14' E 007°47'1010.1
2015-Aug-29 03:33N 54°20' E 007°33'9 9.4
2015-Aug-29 02:33N 54°26' E 007°21'8 8.1
2015-Aug-29 01:33N 54°21' E 007°10'1111.5
2015-Aug-29 00:33N 54°15' E 007°27'1111.4
2015-Aug-28 23:33N 54°09' E 007°43'1110.8
2015-Aug-28 22:33N 54°04' E 007°59'10 9.9
2015-Aug-28 21:33N 54°00' E 008°15'1414.5
2015-Aug-28 20:33N 53°57' E 008°39'1413.6
2015-Aug-28 19:33N 53°51' E 009°00'1313.5
2015-Aug-28 18:34N 53°48' E 009°22'1514.7
2015-Aug-28 17:33N 53°36' E 009°36'1111.2
2015-Aug-28 16:33N 53°33' E 009°54'4 3.5
2015-Aug-28 15:32N 53°32' E 009°60'0 0.0
2015-Aug-28 14:31N 53°32' E 009°60'0 0.0
2015-Aug-28 13:28N 53°32' E 009°60'0 0.0
2015-Aug-28 12:31N 53°32' E 009°60'0 0.0
2015-Aug-28 11:30N 53°32' E 009°60'0 0.0
2015-Aug-28 10:33N 53°32' E 009°60'0 0.0
2015-Aug-28 09:32N 53°32' E 009°60'0 0.0
2015-Aug-28 08:32N 53°32' E 009°60'0 0.0
2015-Aug-28 07:32N 53°32' E 009°60'0 0.0
2015-Aug-28 06:31N 53°32' E 009°60'0 0.0
2015-Aug-28 05:31N 53°32' E 009°60'0 0.0
2015-Aug-28 04:33N 53°32' E 009°60'0 0.0
2015-Aug-28 03:33N 53°32' E 009°60'0 0.0
2015-Aug-28 02:32N 53°32' E 009°60'0 0.0
2015-Aug-28 01:32N 53°32' E 009°60'0 0.0
2015-Aug-28 00:31N 53°32' E 009°60'0 0.0
2015-Aug-27 23:31N 53°32' E 009°60'0 0.0
2015-Aug-27 22:31N 53°32' E 009°60'0 0.0
2015-Aug-27 21:33N 53°32' E 009°60'0 0.0
2015-Aug-27 20:33N 53°32' E 009°60'0 0.0
2015-Aug-27 19:32N 53°32' E 009°60'0 0.0
2015-Aug-27 18:32N 53°32' E 009°60'0 0.0
2015-Aug-27 17:33N 53°32' E 009°60'3 3.2
2015-Aug-27 16:33N 53°32' E 009°54'1010.3
2015-Aug-27 15:34N 53°35' E 009°37'1211.7
2015-Aug-27 14:33N 53°44' E 009°26'1313.4
2015-Aug-27 13:34N 53°53' E 009°08'1413.6
2015-Aug-27 12:34N 53°51' E 008°45'1313.5
2015-Aug-27 11:33N 53°59' E 008°26'1212.3
2015-Aug-27 10:33N 53°59' E 008°05'1818.6
2015-Aug-27 09:33N 54°09' E 007°39'2020.2
2015-Aug-27 08:33N 54°18' E 007°08'24221.3
2015-Aug-26 21:12N 54°54' E 000°15'1520.8
2015-Aug-26 20:29N 54°56' W 000°10'1920.7
2015-Aug-26 19:33N 54°58' W 000°44'25 2.5
2015-Aug-26 09:18N 54°59' W 001°28'5 6.4
2015-Aug-26 08:32N 55°02' W 001°20'4117.5
2015-Aug-26 06:11N 55°42' W 001°33'1419.1
2015-Aug-26 05:26N 55°53' W 001°49'1718.8
2015-Aug-26 04:33N 56°04' W 002°12'2019.6
2015-Aug-26 03:33N 56°06' W 002°46'1615.9
2015-Aug-26 02:33N 56°02' W 003°14'7 6.2
2015-Aug-26 01:26N 56°01' W 003°26'0 0.0
2015-Aug-25 20:06N 56°01' W 003°26'0 0.0
2015-Aug-25 19:30N 56°01' W 003°26'0 0.0
2015-Aug-25 17:32N 56°01' W 003°26'0 0.0
2015-Aug-25 16:25N 56°01' W 003°26'0 0.0
2015-Aug-25 14:25N 56°01' W 003°26'0 0.0
2015-Aug-25 13:18N 56°01' W 003°26'0 0.1
2015-Aug-25 12:26N 56°01' W 003°26'0 0.0
2015-Aug-25 11:17N 56°01' W 003°26'0 0.0
2015-Aug-25 10:31N 56°01' W 003°26'0 0.0
2015-Aug-25 09:22N 56°01' W 003°26'0 0.0
2015-Aug-25 08:31N 56°01' W 003°26'0 0.0
2015-Aug-25 07:19N 56°01' W 003°26'0 0.0
2015-Aug-25 06:12N 56°01' W 003°26'0 0.2
2015-Aug-25 05:33N 56°01' W 003°26'9 9.0
2015-Aug-25 04:33N 56°03' W 003°10'1212.5
2015-Aug-25 03:33N 56°06' W 002°49'1414.2
2015-Aug-25 02:33N 56°09' W 002°24'1313.2
2015-Aug-25 01:33N 56°11' W 002°00'2713.6
2015-Aug-24 23:33N 56°17' W 001°12'38517.4
2015-Aug-24 01:25N 57°49' E 010°15'1518.0
2015-Aug-24 00:33N 57°49' E 010°44'1818.2
2015-Aug-23 23:33N 57°37' E 011°09'1818.2
2015-Aug-23 22:33N 57°23' E 011°31'  

Dump ship's entire track history